Terminal Aerodrome Forecast
Issued by NWS

Home | Current Version | Previous Version | Text Only | Print | Product List | Glossary On
Versions: 1 2 3 4 5 6 7 8 9 10 11 12 13 14 15 16 17 18 19
000
FTUS43 KOAX 281100
TAFSNY
TAF
KSNY 281125Z 2812/2912 15007KT P6SM SKC
     FM281800 15010G18KT P6SM SCT060
     FM290000 15010KT P6SM BKN040 BKN120=

USA.gov is the U.S. government's official web portal to all federal, state and local government web resources and services.